Time;durP1;ratioP1;P1;durP2;ratioP2;P2;SDS_P1;SDS_P2;PMS_P1;PMS_P2;Temp;Humidity;BMP_temperature;BMP_pressure;BME280_temperature;BME280_humidity;BME280_pressure;Samples;Min_cycle;Max_cycle;Signal;HPM_P1;HPM_P2
2023/10/12 00:00:24;;;;;;;14.32;4.63;;;;;;;10.69;70.47;94783.03;5102068;28;20061;-73
2023/10/12 00:02:52;;;;;;;7.30;4.32;;;;;;;10.72;70.58;94793.88;5103012;28;20024;-73
2023/10/12 00:05:18;;;;;;;6.72;4.07;;;;;;;10.70;70.72;94793.38;5102610;28;20314;-73
2023/10/12 00:07:45;;;;;;;12.00;4.55;;;;;;;10.72;70.38;94788.53;5102782;28;20028;-73
2023/10/12 00:12:44;;;;;;;6.80;4.32;;;;;;;10.69;70.92;94778.47;5102778;28;20289;-73
2023/10/12 00:17:46;;;;;;;20.70;5.93;;;;;;;10.70;70.73;94776.59;5102759;28;20024;-74
2023/10/12 00:22:58;;;;;;;7.43;4.15;;;;;;;10.66;70.70;94764.91;5102683;28;20141;-73
2023/10/12 00:25:25;;;;;;;10.63;4.57;;;;;;;10.61;70.81;94771.91;5102672;28;20023;-73
2023/10/12 00:27:51;;;;;;;12.02;3.90;;;;;;;10.59;70.83;94768.75;5101315;28;20326;-73
2023/10/12 00:30:17;;;;;;;10.93;4.28;;;;;;;10.55;71.12;94757.09;5102449;28;20020;-73
2023/10/12 00:32:43;;;;;;;9.57;4.25;;;;;;;10.50;71.23;94759.03;5102546;28;20073;-73
2023/10/12 00:35:13;;;;;;;6.50;3.72;;;;;;;10.44;71.55;94755.63;5102460;28;20027;-73
2023/10/12 00:37:41;;;;;;;14.63;4.10;;;;;;;10.40;71.70;94749.31;5102411;28;20032;-73
2023/10/12 00:40:31;;;;;;;9.57;4.22;;;;;;;10.39;71.75;94753.84;5102495;28;20028;-72
2023/10/12 00:43:00;;;;;;;11.80;4.93;;;;;;;10.38;71.92;94740.81;5084099;28;20092;-72
2023/10/12 00:45:30;;;;;;;8.07;4.07;;;;;;;10.34;72.01;94745.13;5102151;28;20020;-72
2023/10/12 00:48:07;;;;;;;8.77;4.55;;;;;;;10.28;72.33;94744.41;5102259;28;20256;-72
2023/10/12 00:50:33;;;;;;;7.20;4.25;;;;;;;10.24;72.44;94744.19;5102318;28;20031;-73
2023/10/12 00:53:14;;;;;;;11.90;3.92;;;;;;;10.22;72.41;94748.22;5102304;28;20122;-72
2023/10/12 00:55:41;;;;;;;6.85;3.90;;;;;;;10.12;73.02;94743.06;5102237;28;20039;-72
2023/10/12 00:58:10;;;;;;;6.70;4.35;;;;;;;10.04;73.32;94739.16;5102182;28;20016;-73
2023/10/12 01:00:51;;;;;;;10.50;4.75;;;;;;;10.04;73.58;94747.16;5102206;28;20028;-74
2023/10/12 01:03:58;;;;;;;14.35;4.53;;;;;;;10.04;73.46;94742.59;5102387;28;20032;-73
2023/10/12 01:08:46;;;;;;;7.35;4.13;;;;;;;10.04;73.71;94739.16;5102126;28;20098;-73
2023/10/12 01:11:23;;;;;;;9.60;4.78;;;;;;;10.04;73.90;94741.81;5102273;28;20113;-73
2023/10/12 01:16:29;;;;;;;7.28;4.25;;;;;;;10.06;73.65;94734.34;5106057;28;20026;-73
2023/10/12 01:19:05;;;;;;;6.28;4.30;;;;;;;10.04;73.69;94733.81;5105794;28;20024;-72
2023/10/12 01:21:36;;;;;;;8.20;4.38;;;;;;;9.98;73.75;94733.09;5105617;28;20081;-72
2023/10/12 01:24:11;;;;;;;10.80;4.22;;;;;;;9.99;74.06;94732.03;5105647;28;20024;-73
2023/10/12 01:26:38;;;;;;;12.85;4.65;;;;;;;10.02;74.24;94728.78;5105586;28;20087;-73
2023/10/12 01:29:03;;;;;;;10.50;4.70;;;;;;;10.02;74.99;94739.44;5087362;28;20035;-73
2023/10/12 01:31:29;;;;;;;14.68;4.60;;;;;;;10.02;74.78;94741.31;5105460;28;20203;-73
2023/10/12 01:33:59;;;;;;;6.72;3.40;;;;;;;10.01;74.27;94734.38;5105383;28;20024;-72
2023/10/12 01:36:30;;;;;;;8.60;3.90;;;;;;;9.99;74.13;94728.56;5105732;28;20042;-72
2023/10/12 01:39:10;;;;;;;8.90;4.20;;;;;;;10.02;73.82;94733.31;5105175;28;20386;-72
2023/10/12 01:41:40;;;;;;;7.45;4.13;;;;;;;9.99;73.71;94732.03;5105126;28;20032;-72
2023/10/12 01:44:10;;;;;;;12.75;4.18;;;;;;;9.99;73.72;94725.88;5105048;28;20028;-72
2023/10/12 01:46:36;;;;;;;8.02;4.00;;;;;;;9.99;73.63;94725.88;5105190;28;20043;-72
2023/10/12 01:49:06;;;;;;;11.60;4.03;;;;;;;10.00;73.47;94730.16;5105289;28;20028;-72
2023/10/12 01:51:31;;;;;;;8.07;4.30;;;;;;;10.02;73.47;94728.00;5105201;28;20038;-72
2023/10/12 01:53:57;;;;;;;8.10;3.85;;;;;;;9.96;73.33;94729.94;5103764;28;20309;-73
2023/10/12 01:56:28;;;;;;;11.32;4.80;;;;;;;9.94;73.49;94726.75;5105318;28;20130;-73
2023/10/12 01:58:54;;;;;;;10.73;4.28;;;;;;;9.89;73.86;94734.03;5104852;28;20311;-73
2023/10/12 02:01:21;;;;;;;10.77;4.72;;;;;;;9.87;73.98;94742.31;5105155;28;20070;-73
2023/10/12 02:03:53;;;;;;;9.70;4.40;;;;;;;9.87;73.85;94741.50;5104930;28;20119;-73
2023/10/12 02:06:22;;;;;;;12.30;4.88;;;;;;;9.83;73.78;94741.28;5104992;28;20024;-73
2023/10/12 02:08:59;;;;;;;7.85;4.00;;;;;;;9.82;73.88;94747.69;5104866;28;20046;-73
2023/10/12 02:13:50;;;;;;;8.07;4.03;;;;;;;9.79;73.84;94740.25;5104822;28;20012;-73
2023/10/12 02:16:24;;;;;;;8.82;4.50;;;;;;;9.73;73.95;94742.22;5105103;28;20256;-73
2023/10/12 02:18:50;;;;;;;16.52;4.95;;;;;;;9.61;74.49;94745.28;5104593;28;20030;-74
2023/10/12 02:21:21;;;;;;;8.90;4.25;;;;;;;9.52;74.73;94751.53;5104409;28;20099;-73
2023/10/12 02:28:56;;;;;;;8.73;4.85;;;;;;;9.30;75.67;94744.03;5102594;28;20038;-74
2023/10/12 02:31:27;;;;;;;11.60;4.75;;;;;;;9.24;76.05;94740.66;5103505;28;20087;-73
2023/10/12 02:33:53;;;;;;;15.77;4.93;;;;;;;9.21;76.14;94733.25;5103159;28;20026;-73
2023/10/12 02:36:19;;;;;;;24.35;5.18;;;;;;;9.15;76.41;94737.03;5104191;28;20020;-73
2023/10/12 02:38:44;;;;;;;11.65;5.30;;;;;;;9.11;76.63;94730.69;5104159;28;20051;-73
2023/10/12 02:41:13;;;;;;;14.55;5.07;;;;;;;9.07;76.88;94738.44;5103050;28;20031;-73
2023/10/12 02:43:40;;;;;;;11.73;5.43;;;;;;;9.00;77.29;94736.09;5104148;28;20214;-73
2023/10/12 02:46:06;;;;;;;9.07;5.03;;;;;;;9.03;77.38;94746.16;5104149;28;20024;-73
2023/10/12 02:48:36;;;;;;;7.38;4.65;;;;;;;9.08;77.24;94748.00;5103678;28;20020;-73
2023/10/12 02:51:06;;;;;;;15.15;5.15;;;;;;;9.11;77.38;94741.31;5103853;28;20345;-73
2023/10/12 02:53:34;;;;;;;8.25;4.95;;;;;;;9.14;77.01;94736.25;5103670;28;20147;-73
2023/10/12 02:56:01;;;;;;;9.07;5.30;;;;;;;9.22;76.84;94743.59;5103943;28;20031;-73
2023/10/12 02:58:27;;;;;;;16.38;5.85;;;;;;;9.25;76.58;94736.91;5104005;28;20052;-73
2023/10/12 03:00:56;;;;;;;12.32;4.97;;;;;;;9.29;76.20;94727.28;5103826;28;20104;-73
2023/10/12 03:03:26;;;;;;;10.43;5.22;;;;;;;9.32;76.05;94728.59;5103776;28;20027;-74
2023/10/12 03:05:58;;;;;;;10.93;4.97;;;;;;;9.35;75.98;94733.34;5103671;28;20031;-73
2023/10/12 03:08:23;;;;;;;9.60;5.40;;;;;;;9.34;75.74;94729.91;5103816;28;20024;-73
2023/10/12 03:13:42;;;;;;;18.63;5.30;;;;;;;9.36;75.40;94726.94;5103772;28;20089;-73
2023/10/12 03:18:44;;;;;;;12.20;4.82;;;;;;;9.32;75.26;94734.72;5103644;28;20322;-74
2023/10/12 03:21:13;;;;;;;8.93;4.90;;;;;;;9.30;75.26;94728.09;5103673;28;20044;-74
2023/10/12 03:23:40;;;;;;;9.40;5.00;;;;;;;9.27;75.18;94726.00;5103493;28;20047;-74
2023/10/12 03:26:26;;;;;;;14.85;5.28;;;;;;;9.26;75.25;94725.22;5102323;28;20039;-73
2023/10/12 03:29:09;;;;;;;8.93;4.90;;;;;;;9.22;75.14;94730.31;5103347;28;20104;-74
2023/10/12 03:31:57;;;;;;;12.07;5.05;;;;;;;9.17;75.28;94726.91;5103168;28;20061;-74
2023/10/12 03:37:15;;;;;;;22.73;5.28;;;;;;;9.11;75.54;94730.69;5085371;28;20032;-73
2023/10/12 03:44:57;;;;;;;12.52;5.28;;;;;;;9.05;75.50;94727.28;5103068;28;20032;-74
2023/10/12 03:52:19;;;;;;;10.07;5.45;;;;;;;9.02;75.77;94733.19;5103187;28;20043;-73
2023/10/12 03:55:32;;;;;;;9.15;5.40;;;;;;;8.99;76.00;94737.16;5103046;28;20020;-73
2023/10/12 03:57:51;;;;;;;9.30;5.00;;;;;;;8.99;76.51;94737.16;5091857;28;20322;-73
2023/10/12 04:02:53;;;;;;;10.38;5.47;;;;;;;8.84;76.88;94737.34;5102995;28;20016;-73
2023/10/12 04:08:12;;;;;;;11.18;5.47;;;;;;;8.70;77.65;94731.09;5103312;28;20255;-73
2023/10/12 04:16:27;;;;;;;9.63;4.82;;;;;;;8.60;78.15;94740.72;5102811;28;20210;-74
2023/10/12 04:21:23;;;;;;;12.15;5.43;;;;;;;8.60;78.39;94750.56;5102470;28;20133;-73
2023/10/12 04:28:55;;;;;;;8.52;5.18;;;;;;;8.66;78.64;94735.38;5102848;28;20039;-73
2023/10/12 04:39:24;;;;;;;9.73;5.70;;;;;;;8.70;77.98;94733.75;5102544;28;20328;-73
2023/10/12 04:46:58;;;;;;;10.10;5.93;;;;;;;8.71;77.92;94725.50;5104990;28;20020;-73
2023/10/12 04:57:38;;;;;;;13.48;6.20;;;;;;;8.81;77.81;94722.75;5106294;28;20131;-73
2023/10/12 05:07:55;;;;;;;19.90;6.97;;;;;;;9.00;77.03;94727.34;5105896;28;20020;-72
2023/10/12 05:13:10;;;;;;;16.67;5.40;;;;;;;9.10;77.07;94742.38;5105837;28;20086;-74
2023/10/12 05:15:39;;;;;;;18.63;6.75;;;;;;;9.13;77.08;94736.50;5106000;28;20031;-74
2023/10/12 05:18:13;;;;;;;23.13;8.43;;;;;;;9.16;76.96;94736.75;5087618;28;20016;-74
2023/10/12 05:20:42;;;;;;;19.13;6.72;;;;;;;9.23;76.91;94747.03;5105897;28;20373;-73
2023/10/12 05:23:09;;;;;;;17.60;7.60;;;;;;;9.28;76.96;94743.53;5105765;28;20314;-74
2023/10/12 05:28:17;;;;;;;20.13;6.90;;;;;;;9.39;75.97;94756.44;5105685;28;20039;-74
2023/10/12 05:31:28;;;;;;;17.20;7.05;;;;;;;9.42;75.96;94750.56;5105703;28;20024;-74
2023/10/12 05:36:01;;;;;;;19.60;8.68;;;;;;;9.47;75.71;94762.25;5105657;28;20047;-73
2023/10/12 05:38:34;;;;;;;38.70;8.75;;;;;;;9.46;75.63;94765.97;5105339;28;20048;-73
2023/10/12 05:41:04;;;;;;;14.90;7.38;;;;;;;9.41;75.79;94772.91;5105324;28;20087;-85
2023/10/12 05:43:33;;;;;;;23.00;8.15;;;;;;;9.46;75.34;94765.97;5105636;28;20024;-84
2023/10/12 05:46:03;;;;;;;17.98;7.85;;;;;;;9.46;75.44;94768.63;5104597;28;20020;-82
2023/10/12 05:48:29;;;;;;;20.40;9.25;;;;;;;9.50;75.52;94765.09;5087403;28;20321;-85
2023/10/12 05:50:54;;;;;;;22.50;9.68;;;;;;;9.55;75.26;94772.25;5087564;28;20046;-84
2023/10/12 05:53:20;;;;;;;16.40;7.60;;;;;;;9.57;75.01;94768.22;5105473;28;20031;-84
2023/10/12 05:55:47;;;;;;;13.38;7.93;;;;;;;9.54;74.88;94781.31;5087235;28;20020;-84
2023/10/12 05:58:15;;;;;;;27.10;8.73;;;;;;;9.58;75.02;94766.34;5104543;28;20039;-83
2023/10/12 06:00:52;;;;;;;22.25;8.80;;;;;;;9.60;74.95;94764.97;5105564;28;20016;-82
2023/10/12 06:03:21;;;;;;;19.63;8.55;;;;;;;9.61;75.31;94766.59;5105261;28;20051;-88
2023/10/12 06:05:48;;;;;;;20.80;9.50;;;;;;;9.64;75.79;94778.53;5105965;28;20073;-74
2023/10/12 06:08:16;;;;;;;21.38;9.13;;;;;;;9.71;75.70;94771.00;5105178;28;20030;-80
2023/10/12 06:10:42;;;;;;;20.88;9.15;;;;;;;9.76;75.59;94764.81;5105304;28;20016;-78
2023/10/12 06:13:14;;;;;;;28.52;8.48;;;;;;;9.85;75.68;94760.44;5104815;28;20019;-79
2023/10/12 06:15:41;;;;;;;;;;;;;;;9.94;75.22;94765.91;5107439;28;20070;-79
2023/10/12 06:18:21;;;;;;;24.35;8.35;;;;;;;10.03;75.00;94761.53;5104950;28;19936;-79
2023/10/12 06:20:47;;;;;;;20.45;8.52;;;;;;;10.06;74.58;94768.16;5104988;28;20020;-79
2023/10/12 06:23:15;;;;;;;20.40;9.80;;;;;;;10.12;75.02;94772.34;5104979;28;20024;-79
2023/10/12 06:25:43;;;;;;;15.07;8.18;;;;;;;10.20;74.47;94766.38;5086851;28;20267;-78
2023/10/12 06:28:17;;;;;;;22.75;8.20;;;;;;;10.42;74.73;94765.81;5104735;28;20073;-78
2023/10/12 06:30:46;;;;;;;16.73;8.25;;;;;;;10.52;73.67;94765.69;5104757;28;20024;-80
2023/10/12 06:33:17;;;;;;;30.90;8.27;;;;;;;10.57;72.39;94773.56;5105007;28;20095;-78
2023/10/12 06:35:59;;;;;;;20.90;8.45;;;;;;;10.59;71.95;94776.75;5104733;28;20036;-80
2023/10/12 06:38:47;;;;;;;23.92;8.52;;;;;;;10.63;72.25;94769.75;5104597;28;20047;-79
2023/10/12 06:44:12;;;;;;;14.48;7.90;;;;;;;10.77;70.61;94769.03;5104566;28;20031;-78
2023/10/12 06:46:44;;;;;;;14.98;8.63;;;;;;;10.79;70.69;94767.63;5104220;28;20024;-79
2023/10/12 06:49:16;;;;;;;;;;;;;;;10.82;70.93;94769.72;5105041;28;20092;-77
2023/10/12 06:51:42;;;;;;;26.97;8.53;;;;;;;10.86;71.19;94769.13;5086049;28;19971;-76
2023/10/12 06:54:18;;;;;;;33.35;9.60;;;;;;;10.95;71.16;94770.03;5104183;28;20016;-76
2023/10/12 06:56:50;;;;;;;21.40;8.30;;;;;;;11.08;70.65;94776.50;5103807;28;20012;-74
2023/10/12 07:04:27;;;;;;;13.98;8.00;;;;;;;11.35;69.40;94784.53;5103878;28;20059;-76
2023/10/12 07:06:56;;;;;;;17.80;8.48;;;;;;;11.47;68.80;94775.28;5103687;28;20275;-74
2023/10/12 07:09:43;;;;;;;17.42;8.68;;;;;;;11.61;68.53;94776.84;5103340;28;20219;-75
2023/10/12 07:12:19;;;;;;;16.02;7.50;;;;;;;11.76;67.83;94785.66;5103665;28;20020;-75
2023/10/12 07:14:53;;;;;;;16.38;7.85;;;;;;;11.84;67.74;94776.94;5103722;28;20086;-75
2023/10/12 07:17:24;;;;;;;22.33;9.15;;;;;;;11.94;67.10;94781.31;5103672;28;20043;-76
2023/10/12 07:19:53;;;;;;;32.28;8.73;;;;;;;11.98;67.54;94779.63;5103604;28;20024;-75
2023/10/12 07:22:19;;;;;;;13.52;7.22;;;;;;;12.08;67.23;94784.78;5103499;28;20028;-76
2023/10/12 07:24:46;;;;;;;16.95;8.23;;;;;;;12.11;66.79;94784.19;5103632;28;20283;-76
2023/10/12 07:27:12;;;;;;;18.35;8.02;;;;;;;12.22;66.50;94774.84;5103689;28;20276;-76
2023/10/12 07:29:44;;;;;;;21.95;7.75;;;;;;;12.33;65.94;94778.06;5103324;28;20023;-76
2023/10/12 07:32:30;;;;;;;;;;;;;;;12.27;65.97;94775.81;5085809;28;20051;-76
2023/10/12 07:35:06;;;;;;;30.25;7.55;;;;;;;12.30;66.29;94780.59;5103478;28;19911;-76
2023/10/12 07:37:32;;;;;;;16.63;8.52;;;;;;;12.36;65.38;94777.50;5103172;28;20068;-76
2023/10/12 07:40:13;;;;;;;15.98;7.20;;;;;;;12.42;65.42;94778.19;5102022;28;20234;-75
2023/10/12 07:42:40;;;;;;;18.73;7.25;;;;;;;12.51;65.05;94778.22;5103309;28;20019;-76
2023/10/12 07:45:06;;;;;;;23.23;9.20;;;;;;;12.58;64.78;94776.72;5103179;28;20019;-76
2023/10/12 07:47:31;;;;;;;17.02;8.02;;;;;;;12.72;65.72;94775.88;5103109;28;20027;-76
2023/10/12 07:50:13;;;;;;;14.93;7.47;;;;;;;12.90;65.30;94771.44;5102994;28;20087;-75
2023/10/12 07:55:12;;;;;;;23.25;8.43;;;;;;;13.27;63.13;94770.25;5103126;28;20225;-76
2023/10/12 07:57:39;;;;;;;27.88;9.38;;;;;;;13.39;62.25;94773.19;5103052;28;20050;-76
2023/10/12 08:13:26;;;;;;;22.13;7.85;;;;;;;13.65;60.03;94765.22;5102204;28;20058;-87
2023/10/12 08:15:56;;;;;;;34.85;8.32;;;;;;;13.75;60.01;94753.44;5085917;28;20032;-87
2023/10/12 08:23:49;;;;;;;22.88;9.00;;;;;;;14.04;58.13;94757.44;5107162;28;20020;-80
2023/10/12 08:26:33;;;;;;;17.60;7.88;;;;;;;14.05;57.93;94753.69;5105785;28;20044;-80
2023/10/12 08:28:59;;;;;;;22.13;8.00;;;;;;;14.09;58.03;94743.91;5107024;28;20091;-80
2023/10/12 08:31:30;;;;;;;22.63;7.80;;;;;;;14.16;58.22;94736.19;5107171;28;20031;-81
2023/10/12 08:34:13;;;;;;;24.05;7.38;;;;;;;14.27;58.34;94739.38;5089087;28;20020;-82
2023/10/12 08:37:08;;;;;;;15.95;6.45;;;;;;;14.41;58.26;94731.97;5107122;28;20377;-81
2023/10/12 08:39:37;;;;;;;16.75;7.50;;;;;;;14.54;56.69;94738.25;5106448;28;20157;-81
2023/10/12 08:42:36;;;;;;;23.65;6.35;;;;;;;14.61;56.64;94725.19;5106676;28;20031;-81
2023/10/12 08:44:58;;;;;;;16.05;6.50;;;;;;;14.73;55.66;94726.44;5106692;28;20024;-82
2023/10/12 08:52:38;;;;;;;15.32;6.65;;;;;;;14.84;55.16;94725.00;5107017;28;20019;-82
2023/10/12 08:57:57;;;;;;;26.70;6.55;;;;;;;14.93;55.31;94714.25;5106947;28;20054;-82
2023/10/12 09:03:24;;;;;;;20.52;7.43;;;;;;;15.05;55.41;94712.47;5107057;28;20034;-83
2023/10/12 09:05:54;;;;;;;19.85;7.28;;;;;;;15.16;55.70;94704.88;5107059;28;20069;-82
2023/10/12 09:13:21;;;;;;;16.63;5.47;;;;;;;15.49;54.94;94692.72;5106201;28;20107;-82
2023/10/12 09:15:54;;;;;;;29.38;6.95;;;;;;;15.62;54.72;94689.03;5106182;28;20020;-82
2023/10/12 09:18:26;;;;;;;16.23;6.90;;;;;;;15.75;54.90;94684.56;5088098;28;20024;-82
2023/10/12 09:31:48;;;;;;;17.35;7.25;;;;;;;16.37;52.35;94666.88;5106360;28;20020;-82
2023/10/12 09:36:44;;;;;;;15.80;6.78;;;;;;;16.58;51.71;94659.56;5106047;28;20086;-83
2023/10/12 09:39:14;;;;;;;24.95;6.90;;;;;;;16.68;51.95;94658.38;5105492;28;20036;-82
2023/10/12 09:41:55;;;;;;;12.65;5.88;;;;;;;16.70;50.53;94652.66;5104240;28;20023;-86
2023/10/12 09:44:26;;;;;;;15.75;6.88;;;;;;;16.75;50.30;94655.13;5087770;28;20020;-85
2023/10/12 09:46:55;;;;;;;15.93;7.43;;;;;;;16.77;50.50;94642.13;5087902;28;20022;-85
2023/10/12 09:49:22;;;;;;;29.17;7.25;;;;;;;16.83;50.50;94633.53;5105922;28;20020;-86
2023/10/12 09:52:03;;;;;;;17.83;5.95;;;;;;;16.94;51.50;94630.41;5105831;28;20214;-83
2023/10/12 09:55:13;;;;;;;12.20;5.70;;;;;;;17.05;50.50;94623.47;5087243;28;20030;-82
2023/10/12 09:57:49;;;;;;;13.85;6.10;;;;;;;17.19;50.89;94621.22;5105532;28;20027;-82
2023/10/12 10:00:28;;;;;;;16.98;6.18;;;;;;;17.34;50.82;94627.88;5105139;28;20032;-82
2023/10/12 10:02:59;;;;;;;21.48;6.18;;;;;;;17.51;49.51;94615.28;5105296;28;20265;-82
2023/10/12 10:05:39;;;;;;;17.48;6.45;;;;;;;17.63;49.07;94617.97;5105283;28;20059;-82
2023/10/12 10:08:06;;;;;;;21.38;5.82;;;;;;;17.81;48.67;94613.13;5107475;28;20023;-82
2023/10/12 10:10:34;;;;;;;23.85;5.90;;;;;;;17.92;49.02;94608.06;5104046;28;20019;-83
2023/10/12 10:13:12;;;;;;;16.67;5.15;;;;;;;17.97;47.24;94599.72;5104268;28;20073;-81
2023/10/12 10:15:57;;;;;;;18.08;6.13;;;;;;;18.09;47.54;94602.38;5086423;28;20317;-81
2023/10/12 10:18:25;;;;;;;11.25;5.43;;;;;;;18.21;47.13;94594.25;5103720;28;20035;-81
2023/10/12 10:21:05;;;;;;;14.20;5.55;;;;;;;18.33;47.44;94609.59;5105047;28;20036;-85
2023/10/12 10:23:37;;;;;;;18.85;5.53;;;;;;;18.39;46.80;94594.72;5104237;28;20043;-84
2023/10/12 10:26:47;;;;;;;17.67;5.55;;;;;;;18.50;47.01;94589.63;5103647;28;20034;-85
2023/10/12 10:29:05;;;;;;;15.40;5.32;;;;;;;18.61;47.22;94587.22;5101173;28;20107;-85
2023/10/12 10:31:41;;;;;;;17.95;4.78;;;;;;;18.75;45.43;94590.28;5103125;28;20032;-84
2023/10/12 10:34:09;;;;;;;16.63;5.20;;;;;;;18.86;45.20;94579.00;5103136;28;20016;-83
2023/10/12 10:36:35;;;;;;;16.90;5.07;;;;;;;18.97;45.06;94578.13;5085708;28;20030;-84
2023/10/12 10:39:07;;;;;;;13.85;5.20;;;;;;;19.07;45.10;94570.63;5104685;28;20043;-84
2023/10/12 10:41:46;;;;;;;14.55;5.72;;;;;;;19.16;44.41;94574.72;5104428;28;20181;-82
2023/10/12 10:44:21;;;;;;;15.82;4.68;;;;;;;19.26;44.47;94576.09;5103822;28;20028;-84
2023/10/12 10:46:49;;;;;;;23.90;4.78;;;;;;;19.35;44.51;94562.41;5086310;28;20088;-74
2023/10/12 10:49:16;;;;;;;20.05;5.15;;;;;;;19.45;44.32;94553.75;5086094;28;20030;-77
2023/10/12 10:52:02;;;;;;;13.18;4.90;;;;;;;19.51;42.37;94562.38;5104487;28;20034;-77
2023/10/12 10:54:28;;;;;;;18.67;4.22;;;;;;;19.55;42.83;94550.50;5103974;28;20054;-77
2023/10/12 10:56:55;;;;;;;16.38;4.93;;;;;;;19.61;42.90;94548.31;5104126;28;20019;-77
2023/10/12 10:59:20;;;;;;;10.05;4.68;;;;;;;19.64;42.72;94553.78;5103965;28;20027;-79
2023/10/12 11:01:50;;;;;;;16.45;4.35;;;;;;;19.67;41.96;94544.19;5104185;28;20095;-78
2023/10/12 11:07:03;;;;;;;16.48;4.35;;;;;;;19.88;42.88;94540.38;5104187;28;20093;-78
2023/10/12 11:09:31;;;;;;;15.20;5.38;;;;;;;19.99;40.91;94531.34;5103856;28;20064;-77
2023/10/12 11:12:01;;;;;;;17.83;5.05;;;;;;;20.04;41.30;94533.75;5103778;28;20015;-78
2023/10/12 11:14:32;;;;;;;26.40;4.80;;;;;;;20.08;42.12;94523.00;5103804;28;20230;-77
2023/10/12 11:17:00;;;;;;;20.25;4.45;;;;;;;20.26;41.95;94525.28;5085725;28;20036;-77
2023/10/12 11:19:27;;;;;;;23.92;4.78;;;;;;;20.38;42.15;94515.06;5103804;28;20043;-77
2023/10/12 11:21:52;;;;;;;16.08;4.15;;;;;;;20.55;41.32;94516.50;5103631;28;20104;-79
2023/10/12 11:24:19;;;;;;;13.60;4.28;;;;;;;20.72;40.45;94499.06;5103683;28;20028;-78
2023/10/12 11:26:57;;;;;;;14.75;3.83;;;;;;;20.92;40.96;94499.75;5085217;28;20028;-76
2023/10/12 11:29:26;;;;;;;15.35;4.78;;;;;;;20.99;38.22;94496.38;5103190;28;20020;-76
2023/10/12 11:32:08;;;;;;;12.90;4.82;;;;;;;20.92;38.17;94491.59;5103235;28;20023;-77
2023/10/12 11:34:34;;;;;;;;;;;;;;;20.80;38.37;94486.38;5085285;28;20032;-77
2023/10/12 11:37:01;;;;;;;9.57;3.92;;;;;;;20.71;39.33;94483.94;5103689;28;19904;-77
2023/10/12 11:39:30;;;;;;;15.48;3.63;;;;;;;20.76;39.59;94477.41;5102977;28;20051;-77
2023/10/12 11:42:06;;;;;;;9.77;3.88;;;;;;;20.90;38.85;94480.34;5103264;28;20023;-78
2023/10/12 11:44:36;;;;;;;8.27;3.40;;;;;;;21.02;38.55;94474.75;5103223;28;20064;-77
2023/10/12 11:47:08;;;;;;;21.50;3.67;;;;;;;21.11;38.65;94473.72;5103275;28;20024;-77
2023/10/12 11:50:01;;;;;;;11.55;4.05;;;;;;;21.25;37.46;94468.50;5103132;28;20098;-80
2023/10/12 11:52:32;;;;;;;15.48;3.78;;;;;;;21.34;38.94;94466.28;5103036;28;20034;-81
2023/10/12 11:55:18;;;;;;;14.98;5.63;;;;;;;21.62;39.15;94465.13;5102980;28;20020;-79
2023/10/12 11:57:46;;;;;;;15.80;3.80;;;;;;;21.88;38.36;94458.88;5103199;28;20031;-78
2023/10/12 12:00:29;;;;;;;11.57;3.30;;;;;;;22.06;38.37;94453.59;5103207;28;20087;-77
2023/10/12 12:03:02;;;;;;;17.13;5.63;;;;;;;22.26;37.16;94454.22;5103008;28;20016;-78
2023/10/12 12:05:32;;;;;;;11.70;3.58;;;;;;;22.44;38.30;94455.19;5103092;28;20061;-78
2023/10/12 12:08:05;;;;;;;15.18;3.80;;;;;;;22.63;36.24;94448.75;5102942;28;20024;-78
2023/10/12 12:13:12;;;;;;;16.10;4.38;;;;;;;22.79;36.21;94437.63;5102576;28;20024;-77
2023/10/12 12:15:46;;;;;;;8.85;3.60;;;;;;;22.82;35.76;94444.25;5084587;28;20072;-77
2023/10/12 12:18:19;;;;;;;18.13;3.67;;;;;;;22.88;34.67;94439.22;5102846;28;20028;-77
2023/10/12 12:21:03;;;;;;;11.63;3.80;;;;;;;22.94;35.84;94438.50;5102531;28;20020;-77
2023/10/12 12:23:34;;;;;;;16.10;3.85;;;;;;;23.11;35.83;94433.59;5103325;28;20024;-78
2023/10/12 12:26:09;;;;;;;18.83;4.43;;;;;;;23.21;35.00;94436.38;5101838;28;20031;-77
2023/10/12 12:28:45;;;;;;;16.05;3.85;;;;;;;23.33;34.78;94435.28;5102937;28;20020;-78
2023/10/12 12:31:15;;;;;;;11.63;3.42;;;;;;;23.54;35.00;94433.81;5102994;28;20016;-78
2023/10/12 12:33:43;;;;;;;18.55;3.92;;;;;;;23.66;34.12;94427.28;5102723;28;20020;-77
2023/10/12 12:36:20;;;;;;;17.83;3.50;;;;;;;23.73;34.09;94428.09;5102658;28;20187;-77
2023/10/12 12:38:57;;;;;;;10.55;3.25;;;;;;;23.77;34.51;94428.91;5102442;28;20036;-78
2023/10/12 12:41:23;;;;;;;12.93;3.10;;;;;;;23.96;34.21;94425.06;5102672;28;20028;-79
2023/10/12 12:43:52;;;;;;;16.77;4.53;;;;;;;24.06;35.57;94426.25;5102379;28;20102;-79
2023/10/12 12:46:19;;;;;;;14.18;3.67;;;;;;;24.20;33.61;94423.56;5102725;28;20077;-79
2023/10/12 12:48:54;;;;;;;13.23;3.42;;;;;;;24.35;33.33;94412.69;5084713;28;20319;-78
2023/10/12 12:51:20;;;;;;;9.07;3.15;;;;;;;24.49;32.45;94418.16;5102689;28;20024;-77
2023/10/12 12:53:47;;;;;;;11.60;3.03;;;;;;;24.52;32.34;94413.91;5084690;28;20052;-82
2023/10/12 12:56:20;;;;;;;12.00;3.33;;;;;;;24.52;33.27;94409.22;5102960;28;20016;-77
2023/10/12 12:58:48;;;;;;;11.80;3.35;;;;;;;24.56;34.52;94404.53;5102714;28;20020;-76
2023/10/12 13:01:26;;;;;;;14.73;3.38;;;;;;;24.85;34.82;94398.31;5102073;28;20043;-76
2023/10/12 13:03:52;;;;;;;20.30;3.20;;;;;;;25.14;34.64;94410.72;5102727;28;20028;-76
2023/10/12 13:06:22;;;;;;;11.48;3.53;;;;;;;25.47;33.16;94407.94;5102458;28;20040;-76
2023/10/12 13:08:47;;;;;;;7.78;2.92;;;;;;;25.75;32.27;94396.91;5106646;28;20012;-76
2023/10/12 13:11:20;;;;;;;7.72;3.22;;;;;;;26.14;32.61;94395.94;5106194;28;20054;-76
2023/10/12 13:13:47;;;;;;;14.48;3.97;;;;;;;26.46;31.01;94389.50;5106251;28;20261;-76
2023/10/12 13:16:13;;;;;;;9.20;2.97;;;;;;;26.84;30.56;94389.59;5106416;28;20031;-76
2023/10/12 13:18:39;;;;;;;12.32;3.30;;;;;;;27.21;29.37;94383.38;5106584;28;20087;-77
2023/10/12 13:21:12;;;;;;;10.82;3.30;;;;;;;27.55;28.65;94387.31;5106048;28;20024;-76
2023/10/12 13:23:38;;;;;;;11.90;3.63;;;;;;;28.10;29.76;94385.47;5106171;28;20016;-76
2023/10/12 13:26:08;;;;;;;9.63;3.70;;;;;;;28.80;26.88;94377.34;5105700;28;20092;-82
2023/10/12 13:28:34;;;;;;;14.02;4.18;;;;;;;29.49;25.60;94376.13;5087763;28;20030;-81
2023/10/12 13:30:59;;;;;;;9.02;3.17;;;;;;;30.14;25.89;94375.56;5105816;28;20016;-81
2023/10/12 13:33:27;;;;;;;12.27;3.60;;;;;;;30.59;24.01;94375.75;5087690;28;20023;-81
2023/10/12 13:35:55;;;;;;;22.00;3.70;;;;;;;31.10;23.62;94372.53;5087474;28;20020;-82
2023/10/12 13:38:21;;;;;;;8.93;3.25;;;;;;;31.54;24.28;94369.41;5105556;28;20085;-80
2023/10/12 13:40:49;;;;;;;6.45;3.20;;;;;;;31.68;22.75;94369.00;5105642;28;20035;-82
2023/10/12 13:43:15;;;;;;;15.07;3.28;;;;;;;31.82;22.60;94364.31;5105547;28;20341;-81
2023/10/12 13:45:47;;;;;;;9.23;2.95;;;;;;;31.95;22.47;94363.09;5105792;28;20027;-82
2023/10/12 13:48:27;;;;;;;13.68;2.88;;;;;;;32.08;21.55;94359.59;5087447;28;20024;-81
2023/10/12 13:51:04;;;;;;;8.77;3.10;;;;;;;32.21;21.99;94363.16;5105349;28;20091;-80
2023/10/12 13:53:36;;;;;;;9.02;3.20;;;;;;;32.18;21.63;94364.06;5087346;28;20031;-79
2023/10/12 13:56:08;;;;;;;15.95;3.40;;;;;;;32.06;21.72;94346.28;5105193;28;20062;-80
2023/10/12 13:58:37;;;;;;;14.15;3.75;;;;;;;31.83;21.77;94355.59;5105302;28;20035;-82
2023/10/12 14:01:04;;;;;;;7.88;3.33;;;;;;;31.84;21.92;94351.63;5087119;28;20046;-80
2023/10/12 14:03:34;;;;;;;13.02;3.20;;;;;;;32.01;22.17;94344.06;5105174;28;20119;-80
2023/10/12 14:06:01;;;;;;;10.48;2.97;;;;;;;32.02;21.56;94334.59;5105271;28;20028;-80
2023/10/12 14:08:28;;;;;;;13.48;4.57;;;;;;;31.84;22.59;94335.09;5087082;28;20302;-81
2023/10/12 14:10:54;;;;;;;13.88;2.88;;;;;;;31.78;22.53;94337.63;5104916;28;20020;-81
2023/10/12 14:13:20;;;;;;;9.23;3.10;;;;;;;31.85;22.31;94335.88;5086832;28;20027;-81
2023/10/12 14:15:47;;;;;;;15.43;3.38;;;;;;;31.85;23.13;94336.63;5104850;28;20252;-82
2023/10/12 14:18:16;;;;;;;12.65;2.80;;;;;;;31.98;22.46;94328.38;5104305;28;20028;-81
2023/10/12 14:20:46;;;;;;;10.75;3.05;;;;;;;32.03;22.35;94340.88;5104845;28;20275;-80
2023/10/12 14:23:13;;;;;;;20.48;5.22;;;;;;;31.95;22.60;94334.78;5104779;28;20087;-82
2023/10/12 14:25:47;;;;;;;10.68;3.25;;;;;;;31.91;22.64;94334.09;5105208;28;20024;-82